»·PEaware :: N630HR KAMA-KABQ

N630HR :: KAMA-KABQ

FLIGHT INFORMATION

Flight Status: Arrived
Operator: Privately registered:
United States
More flights under this callsign
Pilot: Drew L. (13237)
Aircraft: ECLIPSE 500
(EA50)
More flights by this aircraft type
Origin: KAMA Amarillo Intl
United States
Destination: KABQ Albuquerque Intl Sunport
United States
More flights between these airports :: More routes between these airports
Route: +
File this flight plan on PilotEdge
Remarks:
Altitude:
(Current/Filed)
0ft
Speed:
(Current/Filed)
0kts
Departed: 23-Jul-17 03:38 PM
Arrived: 23-Jul-17 04:37 PM
Distance/Time
Traveled:
241nm/0:59
Distance/Time
To Go:
Arrived

Flight Plot

Page will automatically refresh every two minutes.

Flight plan parsing failed; only flown route is shown


Map Options




Map Legend


Flown Route
Filed Route
Departure Airport
Arrival Airport
Navaid (VOR, NDB)
Fix

Horizontal Profiles

Position Reports

Time Latitude Longitude Heading Altitude Ground
Speed
23-Jul-17 15:35 35.219658 -101.705415 95 3603ft 0kts
23-Jul-17 15:36 35.219658 -101.705415 95 3603ft 0kts
23-Jul-17 15:37 35.219865 -101.705413 348 3602ft 9kts
23-Jul-17 15:38 35.220192 -101.706513 309 3602ft 14kts
23-Jul-17 15:39 35.220247 -101.706587 314 3602ft 0kts
23-Jul-17 15:40 35.220754 -101.707174 334 3602ft 21kts
23-Jul-17 15:41 35.227859 -101.698921 34 3599ft 41kts
23-Jul-17 15:42 35.229013 -101.697642 48 3599ft 0kts
23-Jul-17 15:43 35.229424 -101.697001 69 3597ft 15kts
23-Jul-17 15:44 35.210816 -101.675963 135 4087ft 177kts
23-Jul-17 15:45 35.226715 -101.635284 7 5769ft 183kts
23-Jul-17 15:46 35.258410 -101.632593 6 6641ft 162kts
23-Jul-17 15:47 35.280894 -101.686471 277 8436ft 228kts
23-Jul-17 15:48 35.289575 -101.761819 277 10717ft 232kts
23-Jul-17 15:49 35.261281 -101.825979 228 12740ft 237kts
23-Jul-17 15:50 35.219187 -101.891719 250 14065ft 264kts
23-Jul-17 15:51 35.214868 -101.980090 268 15535ft 271kts
23-Jul-17 15:52 35.212867 -102.070137 269 17019ft 272kts
23-Jul-17 15:53 35.211002 -102.164540 270 17592ft 300kts
23-Jul-17 15:54 35.208944 -102.269383 269 17597ft 326kts
23-Jul-17 15:55 35.206586 -102.379288 269 17594ft 337kts
23-Jul-17 15:56 35.204013 -102.492647 269 17594ft 342kts
23-Jul-17 15:57 35.201345 -102.605431 269 17593ft 341kts
23-Jul-17 15:58 35.198586 -102.717933 269 17591ft 339kts
23-Jul-17 15:59 35.195714 -102.830311 269 17609ft 338kts
23-Jul-17 16:00 35.192764 -102.942192 269 17631ft 337kts
23-Jul-17 16:01 35.189639 -103.053583 269 17638ft 338kts
23-Jul-17 16:02 35.186383 -103.166151 270 17638ft 338kts
23-Jul-17 16:03 35.183177 -103.277465 270 17639ft 338kts
23-Jul-17 16:04 35.179893 -103.389635 270 17632ft 338kts
23-Jul-17 16:05 35.176477 -103.501364 270 17639ft 338kts
23-Jul-17 16:06 35.172877 -103.613388 269 17649ft 339kts
23-Jul-17 16:07 35.169334 -103.722337 269 17637ft 338kts
23-Jul-17 16:08 35.165731 -103.834644 269 17520ft 341kts
23-Jul-17 16:09 35.161811 -103.947134 268 17518ft 342kts
23-Jul-17 16:10 35.157646 -104.060813 268 17519ft 342kts
23-Jul-17 16:11 35.153490 -104.173235 268 17519ft 342kts
23-Jul-17 16:12 35.149250 -104.286341 268 17519ft 342kts
23-Jul-17 16:13 35.144893 -104.399782 268 17520ft 342kts
23-Jul-17 16:14 35.140450 -104.512561 268 17608ft 340kts
23-Jul-17 16:15 35.135910 -104.625268 268 17712ft 339kts
23-Jul-17 16:16 35.131355 -104.736110 268 17738ft 340kts
23-Jul-17 16:17 35.126636 -104.848351 268 17738ft 341kts
23-Jul-17 16:18 35.121766 -104.961508 268 17738ft 341kts
23-Jul-17 16:19 35.116813 -105.074303 268 17738ft 340kts
23-Jul-17 16:20 35.111782 -105.186421 268 17739ft 339kts
23-Jul-17 16:21 35.106651 -105.298293 268 17739ft 339kts
23-Jul-17 16:22 35.101412 -105.410400 268 17726ft 339kts
23-Jul-17 16:23 35.096079 -105.522306 268 17684ft 340kts
23-Jul-17 16:24 35.090589 -105.635253 268 17649ft 340kts
23-Jul-17 16:25 35.085084 -105.746496 267 17646ft 339kts
23-Jul-17 16:26 35.079409 -105.858877 267 17645ft 339kts
23-Jul-17 16:27 35.073756 -105.969809 267 16684ft 315kts
23-Jul-17 16:28 35.068692 -106.069663 266 14890ft 308kts
23-Jul-17 16:29 35.070354 -106.173044 282 13446ft 318kts
23-Jul-17 16:30 35.065991 -106.269161 256 11925ft 256kts
23-Jul-17 16:31 35.053149 -106.337972 256 10579ft 234kts
23-Jul-17 16:32 35.038848 -106.412784 256 9118ft 231kts
23-Jul-17 16:33 35.028211 -106.487896 263 7661ft 230kts
23-Jul-17 16:34 35.023179 -106.560280 268 7011ft 223kts
23-Jul-17 16:35 35.019945 -106.637210 268 7014ft 238kts
23-Jul-17 16:36 35.019444 -106.714205 307 7215ft 197kts
23-Jul-17 16:37 35.044738 -106.687636 87 6289ft 145kts
23-Jul-17 16:38 35.044440 -106.646977 86 5657ft 119kts
23-Jul-17 16:39 35.044306 -106.609920 89 5315ft 82kts
23-Jul-17 16:40 35.044150 -106.599122 97 5318ft 19kts
23-Jul-17 16:41 35.042465 -106.604875 254 5315ft 19kts
23-Jul-17 16:42 35.042429 -106.607928 269 5315ft 38kts
23-Jul-17 16:43 35.042484 -106.616318 269 5310ft 16kts
23-Jul-17 16:44 35.041916 -106.621414 183 5296ft 9kts
23-Jul-17 16:45 35.039759 -106.621169 94 5297ft 4kts
23-Jul-17 16:46 35.039080 -106.619872 181 5304ft 0kts

Navigation Log

Ident Type
Flight plan parsing failed, navigation log unavailable